Historyczne dane pomiarowe

Dodano dane terminowe – wersja testowa.

Dane z okresu 1951-2019

Wersja bazy: 1.34 [2019-03-16, lista zmian], aktualizacja planowana na 2019-04-15

Dane meteo z obszaru Polski uzyskane na podstawie danych udostępnionych przez Instytut Meteorologii i Gospodarki Wodnej – Państwowy Instytut Badawczy.

 

Wybierz Datę:    

       

TemperaturaWilgotnośćWiatrCiśnienieOpadyŚniegCzas trwania zjawisk
 Stacja t tx tn tng RH VA  wxwx mslp ppp RRR   cm mm wxwxwxwxwxwxwx
1996-08-13 17.6 22.5 12.6 10.2 66.0- 8.0 5.7---- 0.2------------
1996-08-14 16.4 20.4 13.6 11.2 88.0- 7.7 5.7---- 9.9------------
1996-08-15 18.0 22.5 14.2 13.8 86.5- 7.3 3.3---- 1.9------------
1996-08-16 15.6 22.5 10.0 9.7 88.0- 6.3 2.0---- 0.0------------
1996-08-17 19.4 28.4 13.2 10.5 68.0- 2.7 1.3---- 0.0------------
1996-08-18 19.0 28.4 12.0 10.5 64.5- 1.3 1.0---- 0.0------------
1996-08-19 18.3 28.6 10.6 10.1 66.3- 0.7 0.3---- 0.0------------
1996-08-20 20.3 26.8 13.4 12.1 66.8- 1.0 1.0---- 0.0------------
1996-08-21 22.5 28.0 14.3 11.7 72.5- 4.3 1.7---- 22.6------------
1996-08-22 19.0 26.2 13.6 10.7 74.5- 7.3 2.3---- 0.0------------
1996-08-23 19.9 26.2 12.2 8.5 71.3- 1.3 2.0---- 0.0------------
1996-08-24 18.5 24.8 13.6 10.3 71.5- 3.0 2.3---- 0.0------------
1996-08-25 16.4 20.8 10.6 9.3 70.5- 3.7 2.3---- 0.0------------
1996-08-26 18.1 23.4 10.3 9.5 65.5- 2.7 3.3---- 0.0------------
1996-08-27 14.4 20.6 9.7 9.1 74.8- 0.7 1.0---- 0.0------------
1996-08-28 15.6 20.6 11.0 9.9 71.5- 3.7 3.3---- 0.0------------
1996-08-29 15.0 20.2 9.7 9.7 74.0- 4.0 2.7---- 0.0------------
1996-08-30 15.0 22.0 8.4 6.7 63.3- 4.0 3.3---- 0.0------------
1996-08-31 18.0 23.6 9.6 7.1 73.8- 4.3 2.0---- 0.0------------
1996-09-01 17.2 24.0 11.1 8.7 73.5- 7.0 2.0---- 0.0------------
1996-09-02 17.6 26.0 11.1 8.2 62.3- 6.3 3.3---- 0.0------------
1996-09-03 18.3 26.5 12.6 8.7 63.0- 3.3 1.3---- 0.0------------
1996-09-04 15.5 21.0 11.6 9.7 82.8- 7.0 4.0---- 0.0------------
1996-09-05 13.5 17.2 11.1 11.2 76.5- 7.0 4.3---- 1.0------------
1996-09-06 11.2 14.5 8.1 8.2 82.5- 7.3 4.7---- 4.6------------
1996-09-07 11.6 13.2 9.6 7.7 97.8- 8.0 10.0---- 9.2------------
1996-09-08 11.2 13.0 9.6 9.7 92.5- 8.0 9.3---- 0.0------------
1996-09-09 9.6 12.5 7.1 6.2 78.5- 7.3 3.3---- 0.0------------
1996-09-10 9.2 14.0 6.2 5.7 83.5- 6.3 4.0---- 1.0------------
1996-09-11 8.1 9.8 5.7 4.7 94.5- 8.0 6.0---- 9.2------------
261.7 ms

 

Źródłem pochodzenia danych jest Instytut Meteorologii i Gospodarki Wodnej – Państwowy Instytut Badawczy. Dane Instytutu Meteorologii i Gospodarki Wodnej – Państwowego Instytutu Badawczego zostały przetworzone.

Dane źródłowe można odnaleźć na stronie https://dane.imgw.pl